首页
METAR-TAF:

METAR-TAF

机场 :

Villacoublay, 法国

纬度: 48-46N, 经度: 002-12E, 海拔: 177米

当前天气观测

该预报发布于18分钟前的09:00 UTC
风速6节,风向北转东北,在西北之间变化
温度 20°C
湿度 53%
气压 1035 hPa
能见度10公里或以上
1500米以下无云,无积雨云

METAR: LFPV 260900Z AUTO 03006KT 320V090 CAVOK 20/10 Q1035 NOSIG

时间: 11:18 (09:18 UTC)

预报

该预报发布于1小时和18分钟前的08:00 UTC
预报有效从26日的 09点(UTC)到 27日的 09点(UTC)
风速9节,风向北转东北
能见度10公里或以上
1500米以下无云,无积雨云

TAF: LFPV 260800Z 2609/2709 03009KT CAVOK

超过4000个机场的气象观测和天气预报(METAR&TAF报告)。

可查询的气象台以黄色和红色小点在地图上表示。

将鼠标移到小点上方,可查看气象台名称。

然后点击查看天气观测和预报。

如需切换地图:点击带黑十字的绿色按钮放大地图;点击带横线的绿色按钮缩小地图;或者点击绿色箭头查看邻近地区的地图。


METAR-TAF: